sensor_id;sensor_type;location;lat;lon;timestamp;P1;durP1;ratioP1;P2;durP2;ratioP2
46613;SDS011;32338;50.430;6.806;2023-04-03T00:00:37;3.67;;;1.02;;
46613;SDS011;32338;50.430;6.806;2023-04-03T00:03:04;2.22;;;0.93;;
46613;SDS011;32338;50.430;6.806;2023-04-03T00:05:31;1.75;;;0.98;;
46613;SDS011;32338;50.430;6.806;2023-04-03T00:07:58;1.70;;;1.00;;
46613;SDS011;32338;50.430;6.806;2023-04-03T00:10:24;4.07;;;0.90;;
46613;SDS011;32338;50.430;6.806;2023-04-03T00:12:51;2.97;;;0.98;;
46613;SDS011;32338;50.430;6.806;2023-04-03T00:15:18;2.80;;;1.10;;
46613;SDS011;32338;50.430;6.806;2023-04-03T00:17:46;1.83;;;1.10;;
46613;SDS011;32338;50.430;6.806;2023-04-03T00:20:12;1.50;;;0.88;;
46613;SDS011;32338;50.430;6.806;2023-04-03T00:22:39;1.45;;;0.90;;
46613;SDS011;32338;50.430;6.806;2023-04-03T00:25:06;1.08;;;0.95;;
46613;SDS011;32338;50.430;6.806;2023-04-03T00:27:35;1.67;;;0.90;;
46613;SDS011;32338;50.430;6.806;2023-04-03T00:30:02;1.65;;;1.00;;
46613;SDS011;32338;50.430;6.806;2023-04-03T00:32:30;1.88;;;1.02;;
46613;SDS011;32338;50.430;6.806;2023-04-03T00:34:58;2.35;;;1.20;;
46613;SDS011;32338;50.430;6.806;2023-04-03T00:37:25;2.83;;;0.93;;
46613;SDS011;32338;50.430;6.806;2023-04-03T00:39:51;1.92;;;0.90;;
46613;SDS011;32338;50.430;6.806;2023-04-03T00:42:18;3.40;;;1.00;;
46613;SDS011;32338;50.430;6.806;2023-04-03T00:47:50;5.55;;;1.02;;
46613;SDS011;32338;50.430;6.806;2023-04-03T00:50:18;2.17;;;0.85;;
46613;SDS011;32338;50.430;6.806;2023-04-03T00:52:46;0.80;;;0.80;;
46613;SDS011;32338;50.430;6.806;2023-04-03T00:55:14;1.38;;;0.88;;
46613;SDS011;32338;50.430;6.806;2023-04-03T00:57:42;2.70;;;1.00;;
46613;SDS011;32338;50.430;6.806;2023-04-03T01:00:11;5.10;;;0.93;;
46613;SDS011;32338;50.430;6.806;2023-04-03T01:02:40;2.33;;;1.10;;
46613;SDS011;32338;50.430;6.806;2023-04-03T01:05:07;4.00;;;0.98;;
46613;SDS011;32338;50.430;6.806;2023-04-03T01:07:36;1.98;;;1.30;;
46613;SDS011;32338;50.430;6.806;2023-04-03T01:10:03;4.93;;;0.98;;
46613;SDS011;32338;50.430;6.806;2023-04-03T01:12:34;2.05;;;0.93;;
46613;SDS011;32338;50.430;6.806;2023-04-03T01:15:04;3.25;;;1.02;;
46613;SDS011;32338;50.430;6.806;2023-04-03T01:17:33;1.73;;;0.95;;
46613;SDS011;32338;50.430;6.806;2023-04-03T01:22:59;1.58;;;1.27;;
46613;SDS011;32338;50.430;6.806;2023-04-03T01:25:38;3.85;;;0.95;;
46613;SDS011;32338;50.430;6.806;2023-04-03T01:28:10;0.82;;;0.75;;
46613;SDS011;32338;50.430;6.806;2023-04-03T01:30:40;2.15;;;1.00;;
46613;SDS011;32338;50.430;6.806;2023-04-03T01:33:13;1.02;;;0.80;;
46613;SDS011;32338;50.430;6.806;2023-04-03T01:35:39;2.05;;;0.90;;
46613;SDS011;32338;50.430;6.806;2023-04-03T01:38:06;3.15;;;0.70;;
46613;SDS011;32338;50.430;6.806;2023-04-03T01:40:33;2.80;;;0.80;;
46613;SDS011;32338;50.430;6.806;2023-04-03T01:42:59;4.20;;;1.27;;
46613;SDS011;32338;50.430;6.806;2023-04-03T01:45:26;2.22;;;1.10;;
46613;SDS011;32338;50.430;6.806;2023-04-03T01:47:53;2.80;;;1.05;;
46613;SDS011;32338;50.430;6.806;2023-04-03T01:50:21;0.95;;;0.80;;
46613;SDS011;32338;50.430;6.806;2023-04-03T01:52:48;5.80;;;1.20;;
46613;SDS011;32338;50.430;6.806;2023-04-03T01:55:14;3.03;;;0.95;;
46613;SDS011;32338;50.430;6.806;2023-04-03T01:57:41;1.98;;;0.90;;
46613;SDS011;32338;50.430;6.806;2023-04-03T02:00:08;1.17;;;0.90;;
46613;SDS011;32338;50.430;6.806;2023-04-03T02:02:36;1.27;;;1.00;;
46613;SDS011;32338;50.430;6.806;2023-04-03T02:05:02;1.30;;;0.90;;
46613;SDS011;32338;50.430;6.806;2023-04-03T02:07:31;1.45;;;1.17;;
46613;SDS011;32338;50.430;6.806;2023-04-03T02:09:57;2.90;;;1.00;;
46613;SDS011;32338;50.430;6.806;2023-04-03T02:12:24;3.03;;;0.90;;
46613;SDS011;32338;50.430;6.806;2023-04-03T02:14:51;1.98;;;1.23;;
46613;SDS011;32338;50.430;6.806;2023-04-03T02:17:17;2.25;;;0.98;;
46613;SDS011;32338;50.430;6.806;2023-04-03T02:19:44;2.17;;;1.20;;
46613;SDS011;32338;50.430;6.806;2023-04-03T02:22:11;1.55;;;0.88;;
46613;SDS011;32338;50.430;6.806;2023-04-03T02:24:38;3.00;;;0.90;;
46613;SDS011;32338;50.430;6.806;2023-04-03T02:27:06;1.35;;;1.00;;
46613;SDS011;32338;50.430;6.806;2023-04-03T02:29:33;1.75;;;1.00;;
46613;SDS011;32338;50.430;6.806;2023-04-03T02:31:59;1.38;;;0.93;;
46613;SDS011;32338;50.430;6.806;2023-04-03T02:34:26;2.25;;;1.10;;
46613;SDS011;32338;50.430;6.806;2023-04-03T02:36:52;1.48;;;0.90;;
46613;SDS011;32338;50.430;6.806;2023-04-03T02:39:19;2.25;;;0.70;;
46613;SDS011;32338;50.430;6.806;2023-04-03T02:41:47;1.73;;;0.98;;
46613;SDS011;32338;50.430;6.806;2023-04-03T02:44:14;1.70;;;0.80;;
46613;SDS011;32338;50.430;6.806;2023-04-03T02:46:40;2.15;;;0.98;;
46613;SDS011;32338;50.430;6.806;2023-04-03T02:49:07;2.00;;;0.95;;
46613;SDS011;32338;50.430;6.806;2023-04-03T02:51:34;2.78;;;1.08;;
46613;SDS011;32338;50.430;6.806;2023-04-03T02:54:00;3.90;;;1.27;;
46613;SDS011;32338;50.430;6.806;2023-04-03T02:56:27;1.50;;;1.00;;
46613;SDS011;32338;50.430;6.806;2023-04-03T02:58:55;2.28;;;1.00;;
46613;SDS011;32338;50.430;6.806;2023-04-03T03:01:22;3.10;;;1.02;;
46613;SDS011;32338;50.430;6.806;2023-04-03T03:03:48;1.42;;;0.80;;
46613;SDS011;32338;50.430;6.806;2023-04-03T03:06:16;1.77;;;0.82;;
46613;SDS011;32338;50.430;6.806;2023-04-03T03:08:43;1.23;;;1.00;;
46613;SDS011;32338;50.430;6.806;2023-04-03T03:11:10;2.72;;;0.90;;
46613;SDS011;32338;50.430;6.806;2023-04-03T03:13:37;2.30;;;1.02;;
46613;SDS011;32338;50.430;6.806;2023-04-03T03:16:05;1.75;;;0.90;;
46613;SDS011;32338;50.430;6.806;2023-04-03T03:18:33;1.05;;;0.88;;
46613;SDS011;32338;50.430;6.806;2023-04-03T03:21:00;2.78;;;1.08;;
46613;SDS011;32338;50.430;6.806;2023-04-03T03:23:28;4.43;;;1.00;;
46613;SDS011;32338;50.430;6.806;2023-04-03T03:25:57;4.93;;;0.90;;
46613;SDS011;32338;50.430;6.806;2023-04-03T03:28:25;3.70;;;1.08;;
46613;SDS011;32338;50.430;6.806;2023-04-03T03:30:52;1.38;;;0.93;;
46613;SDS011;32338;50.430;6.806;2023-04-03T03:33:20;2.45;;;1.17;;
46613;SDS011;32338;50.430;6.806;2023-04-03T03:35:46;1.90;;;1.13;;
46613;SDS011;32338;50.430;6.806;2023-04-03T03:38:13;4.10;;;1.10;;
46613;SDS011;32338;50.430;6.806;2023-04-03T03:40:40;2.50;;;1.27;;
46613;SDS011;32338;50.430;6.806;2023-04-03T03:43:06;0.98;;;0.70;;
46613;SDS011;32338;50.430;6.806;2023-04-03T03:45:33;3.80;;;1.25;;
46613;SDS011;32338;50.430;6.806;2023-04-03T03:48:00;3.08;;;1.08;;
46613;SDS011;32338;50.430;6.806;2023-04-03T03:50:28;6.65;;;1.08;;
46613;SDS011;32338;50.430;6.806;2023-04-03T03:52:55;2.20;;;1.10;;
46613;SDS011;32338;50.430;6.806;2023-04-03T03:55:21;5.03;;;1.35;;
46613;SDS011;32338;50.430;6.806;2023-04-03T03:57:48;1.42;;;1.33;;
46613;SDS011;32338;50.430;6.806;2023-04-03T04:00:15;2.13;;;1.13;;
46613;SDS011;32338;50.430;6.806;2023-04-03T04:02:42;3.25;;;1.33;;
46613;SDS011;32338;50.430;6.806;2023-04-03T04:05:09;5.28;;;1.30;;
46613;SDS011;32338;50.430;6.806;2023-04-03T04:07:37;2.90;;;0.98;;
46613;SDS011;32338;50.430;6.806;2023-04-03T04:10:04;3.58;;;1.30;;
46613;SDS011;32338;50.430;6.806;2023-04-03T04:12:31;2.85;;;1.48;;
46613;SDS011;32338;50.430;6.806;2023-04-03T04:14:57;3.45;;;1.02;;
46613;SDS011;32338;50.430;6.806;2023-04-03T04:17:24;1.50;;;1.13;;
46613;SDS011;32338;50.430;6.806;2023-04-03T04:19:50;6.88;;;1.55;;
46613;SDS011;32338;50.430;6.806;2023-04-03T04:22:17;2.58;;;0.95;;
46613;SDS011;32338;50.430;6.806;2023-04-03T04:24:45;3.58;;;1.40;;
46613;SDS011;32338;50.430;6.806;2023-04-03T04:27:12;2.63;;;1.27;;
46613;SDS011;32338;50.430;6.806;2023-04-03T04:29:38;2.50;;;1.20;;
46613;SDS011;32338;50.430;6.806;2023-04-03T04:32:05;5.53;;;1.20;;
46613;SDS011;32338;50.430;6.806;2023-04-03T04:34:31;4.07;;;1.30;;
46613;SDS011;32338;50.430;6.806;2023-04-03T04:36:58;3.28;;;1.10;;
46613;SDS011;32338;50.430;6.806;2023-04-03T04:39:25;5.15;;;1.10;;
46613;SDS011;32338;50.430;6.806;2023-04-03T04:41:53;2.65;;;1.13;;
46613;SDS011;32338;50.430;6.806;2023-04-03T04:44:19;2.63;;;1.42;;
46613;SDS011;32338;50.430;6.806;2023-04-03T04:46:46;2.03;;;1.00;;
46613;SDS011;32338;50.430;6.806;2023-04-03T04:49:12;2.85;;;1.38;;
46613;SDS011;32338;50.430;6.806;2023-04-03T04:51:39;3.53;;;1.33;;
46613;SDS011;32338;50.430;6.806;2023-04-03T04:54:05;2.55;;;1.10;;
46613;SDS011;32338;50.430;6.806;2023-04-03T04:56:32;3.35;;;1.10;;
46613;SDS011;32338;50.430;6.806;2023-04-03T04:59:00;4.20;;;1.15;;
46613;SDS011;32338;50.430;6.806;2023-04-03T05:01:27;3.53;;;1.17;;
46613;SDS011;32338;50.430;6.806;2023-04-03T05:03:53;2.53;;;1.30;;
46613;SDS011;32338;50.430;6.806;2023-04-03T05:06:20;3.58;;;1.10;;
46613;SDS011;32338;50.430;6.806;2023-04-03T05:08:47;3.70;;;1.13;;
46613;SDS011;32338;50.430;6.806;2023-04-03T05:11:13;4.20;;;1.20;;
46613;SDS011;32338;50.430;6.806;2023-04-03T05:13:40;2.78;;;1.00;;
46613;SDS011;32338;50.430;6.806;2023-04-03T05:16:08;1.88;;;1.17;;
46613;SDS011;32338;50.430;6.806;2023-04-03T05:18:34;3.85;;;1.13;;
46613;SDS011;32338;50.430;6.806;2023-04-03T05:21:01;2.25;;;1.25;;
46613;SDS011;32338;50.430;6.806;2023-04-03T05:23:28;4.57;;;1.30;;
46613;SDS011;32338;50.430;6.806;2023-04-03T05:25:54;2.15;;;1.40;;
46613;SDS011;32338;50.430;6.806;2023-04-03T05:28:21;7.55;;;1.67;;
46613;SDS011;32338;50.430;6.806;2023-04-03T05:30:52;5.35;;;1.60;;
46613;SDS011;32338;50.430;6.806;2023-04-03T05:33:21;3.42;;;2.20;;
46613;SDS011;32338;50.430;6.806;2023-04-03T05:35:49;4.45;;;1.40;;
46613;SDS011;32338;50.430;6.806;2023-04-03T05:38:15;9.00;;;1.92;;
46613;SDS011;32338;50.430;6.806;2023-04-03T05:40:42;4.43;;;1.60;;
46613;SDS011;32338;50.430;6.806;2023-04-03T05:43:09;4.55;;;1.80;;
46613;SDS011;32338;50.430;6.806;2023-04-03T05:45:36;5.60;;;2.30;;
46613;SDS011;32338;50.430;6.806;2023-04-03T05:48:03;5.25;;;1.90;;
46613;SDS011;32338;50.430;6.806;2023-04-03T05:50:31;3.40;;;1.60;;
46613;SDS011;32338;50.430;6.806;2023-04-03T05:52:57;3.35;;;1.33;;
46613;SDS011;32338;50.430;6.806;2023-04-03T05:55:25;1.98;;;1.58;;
46613;SDS011;32338;50.430;6.806;2023-04-03T05:57:52;3.72;;;1.70;;
46613;SDS011;32338;50.430;6.806;2023-04-03T06:00:19;4.03;;;2.03;;
46613;SDS011;32338;50.430;6.806;2023-04-03T06:02:46;4.00;;;1.58;;
46613;SDS011;32338;50.430;6.806;2023-04-03T06:05:12;4.50;;;1.95;;
46613;SDS011;32338;50.430;6.806;2023-04-03T06:07:40;2.00;;;1.70;;
46613;SDS011;32338;50.430;6.806;2023-04-03T06:10:10;6.10;;;1.52;;
46613;SDS011;32338;50.430;6.806;2023-04-03T06:12:37;3.03;;;1.60;;
46613;SDS011;32338;50.430;6.806;2023-04-03T06:15:05;2.63;;;1.38;;
46613;SDS011;32338;50.430;6.806;2023-04-03T06:17:33;2.92;;;1.60;;
46613;SDS011;32338;50.430;6.806;2023-04-03T06:20:00;4.68;;;1.52;;
46613;SDS011;32338;50.430;6.806;2023-04-03T06:22:26;6.75;;;1.55;;
46613;SDS011;32338;50.430;6.806;2023-04-03T06:24:56;4.60;;;1.38;;
46613;SDS011;32338;50.430;6.806;2023-04-03T06:27:23;5.32;;;1.25;;
46613;SDS011;32338;50.430;6.806;2023-04-03T06:29:49;4.05;;;1.30;;
46613;SDS011;32338;50.430;6.806;2023-04-03T06:32:16;3.65;;;1.05;;
46613;SDS011;32338;50.430;6.806;2023-04-03T06:34:42;3.85;;;1.17;;
46613;SDS011;32338;50.430;6.806;2023-04-03T06:37:10;3.03;;;1.23;;
46613;SDS011;32338;50.430;6.806;2023-04-03T06:39:40;2.78;;;0.95;;
46613;SDS011;32338;50.430;6.806;2023-04-03T06:42:08;2.22;;;1.33;;
46613;SDS011;32338;50.430;6.806;2023-04-03T06:44:36;4.28;;;1.00;;
46613;SDS011;32338;50.430;6.806;2023-04-03T06:47:03;6.68;;;1.23;;
46613;SDS011;32338;50.430;6.806;2023-04-03T06:49:30;4.75;;;1.73;;
46613;SDS011;32338;50.430;6.806;2023-04-03T06:51:57;4.07;;;1.05;;
46613;SDS011;32338;50.430;6.806;2023-04-03T06:54:24;3.13;;;0.85;;
46613;SDS011;32338;50.430;6.806;2023-04-03T06:56:50;4.80;;;1.00;;
46613;SDS011;32338;50.430;6.806;2023-04-03T06:59:18;3.38;;;1.38;;
46613;SDS011;32338;50.430;6.806;2023-04-03T07:01:45;1.73;;;1.00;;
46613;SDS011;32338;50.430;6.806;2023-04-03T07:04:12;4.55;;;0.80;;
46613;SDS011;32338;50.430;6.806;2023-04-03T07:06:39;3.05;;;1.42;;
46613;SDS011;32338;50.430;6.806;2023-04-03T07:09:06;3.00;;;1.40;;
46613;SDS011;32338;50.430;6.806;2023-04-03T07:11:34;4.60;;;1.50;;
46613;SDS011;32338;50.430;6.806;2023-04-03T07:14:01;3.45;;;1.00;;
46613;SDS011;32338;50.430;6.806;2023-04-03T07:16:29;5.38;;;1.33;;
46613;SDS011;32338;50.430;6.806;2023-04-03T07:18:57;4.70;;;1.40;;
46613;SDS011;32338;50.430;6.806;2023-04-03T07:21:23;5.28;;;1.20;;
46613;SDS011;32338;50.430;6.806;2023-04-03T07:23:51;2.50;;;1.10;;
46613;SDS011;32338;50.430;6.806;2023-04-03T07:26:17;5.10;;;1.00;;
46613;SDS011;32338;50.430;6.806;2023-04-03T07:28:45;2.35;;;1.00;;
46613;SDS011;32338;50.430;6.806;2023-04-03T07:31:13;6.57;;;1.20;;
46613;SDS011;32338;50.430;6.806;2023-04-03T07:33:43;3.22;;;1.08;;
46613;SDS011;32338;50.430;6.806;2023-04-03T07:36:11;7.68;;;1.10;;
46613;SDS011;32338;50.430;6.806;2023-04-03T07:38:41;6.32;;;1.58;;
46613;SDS011;32338;50.430;6.806;2023-04-03T07:41:10;3.53;;;1.23;;
46613;SDS011;32338;50.430;6.806;2023-04-03T07:43:40;1.98;;;1.17;;
46613;SDS011;32338;50.430;6.806;2023-04-03T07:46:07;5.82;;;1.02;;
46613;SDS011;32338;50.430;6.806;2023-04-03T07:48:34;8.05;;;1.20;;
46613;SDS011;32338;50.430;6.806;2023-04-03T07:51:02;4.85;;;1.00;;
46613;SDS011;32338;50.430;6.806;2023-04-03T07:53:31;3.75;;;1.00;;
46613;SDS011;32338;50.430;6.806;2023-04-03T07:55:58;4.43;;;1.10;;
46613;SDS011;32338;50.430;6.806;2023-04-03T07:58:26;5.93;;;0.80;;
46613;SDS011;32338;50.430;6.806;2023-04-03T08:00:53;5.45;;;1.10;;
46613;SDS011;32338;50.430;6.806;2023-04-03T08:03:19;4.53;;;0.95;;
46613;SDS011;32338;50.430;6.806;2023-04-03T08:05:47;5.18;;;1.10;;
46613;SDS011;32338;50.430;6.806;2023-04-03T08:08:16;2.97;;;1.00;;
46613;SDS011;32338;50.430;6.806;2023-04-03T08:10:47;3.60;;;1.00;;
46613;SDS011;32338;50.430;6.806;2023-04-03T08:13:14;6.72;;;0.95;;
46613;SDS011;32338;50.430;6.806;2023-04-03T08:15:41;4.47;;;0.70;;
46613;SDS011;32338;50.430;6.806;2023-04-03T08:18:08;3.95;;;1.00;;
46613;SDS011;32338;50.430;6.806;2023-04-03T08:20:35;6.28;;;0.85;;
46613;SDS011;32338;50.430;6.806;2023-04-03T08:23:02;3.75;;;0.73;;
46613;SDS011;32338;50.430;6.806;2023-04-03T08:25:30;5.20;;;1.05;;
46613;SDS011;32338;50.430;6.806;2023-04-03T08:27:56;1.23;;;0.80;;
46613;SDS011;32338;50.430;6.806;2023-04-03T08:30:23;2.47;;;0.90;;
46613;SDS011;32338;50.430;6.806;2023-04-03T08:32:50;2.08;;;0.85;;
46613;SDS011;32338;50.430;6.806;2023-04-03T08:35:16;4.35;;;1.17;;
46613;SDS011;32338;50.430;6.806;2023-04-03T08:37:44;3.83;;;1.00;;
46613;SDS011;32338;50.430;6.806;2023-04-03T08:40:13;3.85;;;0.88;;
46613;SDS011;32338;50.430;6.806;2023-04-03T08:42:45;1.55;;;0.80;;
46613;SDS011;32338;50.430;6.806;2023-04-03T08:45:19;2.85;;;0.90;;
46613;SDS011;32338;50.430;6.806;2023-04-03T08:47:55;3.42;;;1.00;;
46613;SDS011;32338;50.430;6.806;2023-04-03T08:50:31;2.17;;;0.80;;
46613;SDS011;32338;50.430;6.806;2023-04-03T08:53:04;5.28;;;0.90;;
46613;SDS011;32338;50.430;6.806;2023-04-03T08:55:40;3.10;;;1.00;;
46613;SDS011;32338;50.430;6.806;2023-04-03T08:58:11;2.03;;;0.88;;
46613;SDS011;32338;50.430;6.806;2023-04-03T09:00:43;4.18;;;1.00;;
46613;SDS011;32338;50.430;6.806;2023-04-03T09:03:12;2.72;;;1.00;;
46613;SDS011;32338;50.430;6.806;2023-04-03T09:05:41;4.45;;;0.70;;
46613;SDS011;32338;50.430;6.806;2023-04-03T09:08:15;4.63;;;1.05;;
46613;SDS011;32338;50.430;6.806;2023-04-03T09:10:48;4.18;;;1.08;;
46613;SDS011;32338;50.430;6.806;2023-04-03T09:13:21;2.58;;;0.70;;
46613;SDS011;32338;50.430;6.806;2023-04-03T09:15:54;4.57;;;1.00;;
46613;SDS011;32338;50.430;6.806;2023-04-03T09:18:23;5.63;;;1.10;;
46613;SDS011;32338;50.430;6.806;2023-04-03T09:20:58;3.67;;;0.60;;
46613;SDS011;32338;50.430;6.806;2023-04-03T09:23:32;4.07;;;1.20;;
46613;SDS011;32338;50.430;6.806;2023-04-03T09:26:04;2.30;;;0.70;;
46613;SDS011;32338;50.430;6.806;2023-04-03T09:28:36;2.83;;;0.85;;
46613;SDS011;32338;50.430;6.806;2023-04-03T09:31:05;3.95;;;0.95;;
46613;SDS011;32338;50.430;6.806;2023-04-03T09:33:42;4.68;;;0.77;;
46613;SDS011;32338;50.430;6.806;2023-04-03T09:36:10;7.90;;;0.85;;
46613;SDS011;32338;50.430;6.806;2023-04-03T09:38:37;3.90;;;0.70;;
46613;SDS011;32338;50.430;6.806;2023-04-03T09:41:05;3.03;;;0.80;;
46613;SDS011;32338;50.430;6.806;2023-04-03T09:43:33;1.73;;;0.63;;
46613;SDS011;32338;50.430;6.806;2023-04-03T09:48:51;7.32;;;1.35;;
46613;SDS011;32338;50.430;6.806;2023-04-03T09:51:24;4.47;;;0.90;;
46613;SDS011;32338;50.430;6.806;2023-04-03T09:53:52;4.47;;;0.85;;
46613;SDS011;32338;50.430;6.806;2023-04-03T09:56:20;1.58;;;0.85;;
46613;SDS011;32338;50.430;6.806;2023-04-03T09:58:51;2.08;;;0.80;;
46613;SDS011;32338;50.430;6.806;2023-04-03T10:01:35;1.75;;;0.80;;
46613;SDS011;32338;50.430;6.806;2023-04-03T10:04:04;3.08;;;0.60;;
46613;SDS011;32338;50.430;6.806;2023-04-03T10:06:36;10.88;;;1.02;;
46613;SDS011;32338;50.430;6.806;2023-04-03T10:09:06;4.50;;;0.82;;
46613;SDS011;32338;50.430;6.806;2023-04-03T10:11:57;2.92;;;0.82;;
46613;SDS011;32338;50.430;6.806;2023-04-03T10:14:27;3.17;;;0.63;;
46613;SDS011;32338;50.430;6.806;2023-04-03T10:16:59;1.48;;;0.60;;
46613;SDS011;32338;50.430;6.806;2023-04-03T10:19:36;3.97;;;0.93;;
46613;SDS011;32338;50.430;6.806;2023-04-03T10:22:18;2.78;;;0.70;;
46613;SDS011;32338;50.430;6.806;2023-04-03T10:24:52;1.77;;;0.70;;
46613;SDS011;32338;50.430;6.806;2023-04-03T10:27:31;2.65;;;0.80;;
46613;SDS011;32338;50.430;6.806;2023-04-03T10:30:12;6.30;;;0.90;;
46613;SDS011;32338;50.430;6.806;2023-04-03T10:32:52;4.05;;;0.75;;
46613;SDS011;32338;50.430;6.806;2023-04-03T10:35:26;3.72;;;0.80;;
46613;SDS011;32338;50.430;6.806;2023-04-03T10:38:04;6.35;;;1.17;;
46613;SDS011;32338;50.430;6.806;2023-04-03T10:40:39;2.63;;;1.00;;
46613;SDS011;32338;50.430;6.806;2023-04-03T10:45:49;4.50;;;1.10;;
46613;SDS011;32338;50.430;6.806;2023-04-03T10:48:26;1.95;;;0.82;;
46613;SDS011;32338;50.430;6.806;2023-04-03T10:51:16;2.65;;;1.25;;
46613;SDS011;32338;50.430;6.806;2023-04-03T10:53:52;4.43;;;0.90;;
46613;SDS011;32338;50.430;6.806;2023-04-03T10:56:28;6.03;;;1.17;;
46613;SDS011;32338;50.430;6.806;2023-04-03T10:59:05;3.55;;;0.80;;
46613;SDS011;32338;50.430;6.806;2023-04-03T11:01:42;7.88;;;1.05;;
46613;SDS011;32338;50.430;6.806;2023-04-03T11:04:12;3.38;;;0.80;;
46613;SDS011;32338;50.430;6.806;2023-04-03T11:06:45;4.90;;;0.90;;
46613;SDS011;32338;50.430;6.806;2023-04-03T11:09:18;1.52;;;0.80;;
46613;SDS011;32338;50.430;6.806;2023-04-03T11:11:48;3.25;;;0.80;;
46613;SDS011;32338;50.430;6.806;2023-04-03T11:14:18;2.08;;;1.00;;
46613;SDS011;32338;50.430;6.806;2023-04-03T11:16:52;3.50;;;0.93;;
46613;SDS011;32338;50.430;6.806;2023-04-03T11:19:32;3.30;;;0.70;;
46613;SDS011;32338;50.430;6.806;2023-04-03T11:22:05;1.95;;;0.80;;
46613;SDS011;32338;50.430;6.806;2023-04-03T11:24:37;2.95;;;0.80;;
46613;SDS011;32338;50.430;6.806;2023-04-03T11:27:08;3.20;;;1.00;;
46613;SDS011;32338;50.430;6.806;2023-04-03T11:29:41;1.80;;;0.70;;
46613;SDS011;32338;50.430;6.806;2023-04-03T11:32:17;3.25;;;1.00;;
46613;SDS011;32338;50.430;6.806;2023-04-03T11:34:57;3.45;;;1.05;;
46613;SDS011;32338;50.430;6.806;2023-04-03T11:37:28;3.15;;;0.60;;
46613;SDS011;32338;50.430;6.806;2023-04-03T11:40:01;2.13;;;0.77;;
46613;SDS011;32338;50.430;6.806;2023-04-03T11:42:34;4.75;;;0.80;;
46613;SDS011;32338;50.430;6.806;2023-04-03T11:45:23;2.22;;;0.68;;
46613;SDS011;32338;50.430;6.806;2023-04-03T11:47:56;5.70;;;0.90;;
46613;SDS011;32338;50.430;6.806;2023-04-03T11:50:38;4.32;;;0.75;;
46613;SDS011;32338;50.430;6.806;2023-04-03T11:53:26;1.42;;;0.60;;
46613;SDS011;32338;50.430;6.806;2023-04-03T11:55:59;3.72;;;0.80;;
46613;SDS011;32338;50.430;6.806;2023-04-03T11:58:31;2.58;;;0.90;;
46613;SDS011;32338;50.430;6.806;2023-04-03T12:00:59;1.88;;;0.70;;
46613;SDS011;32338;50.430;6.806;2023-04-03T12:03:32;1.85;;;0.50;;
46613;SDS011;32338;50.430;6.806;2023-04-03T12:09:33;1.00;;;0.65;;
46613;SDS011;32338;50.430;6.806;2023-04-03T12:12:28;1.92;;;0.75;;
46613;SDS011;32338;50.430;6.806;2023-04-03T12:15:22;2.07;;;0.60;;
46613;SDS011;32338;50.430;6.806;2023-04-03T12:17:51;3.85;;;0.80;;
46613;SDS011;32338;50.430;6.806;2023-04-03T12:23:25;4.28;;;0.80;;
46613;SDS011;32338;50.430;6.806;2023-04-03T12:26:00;1.55;;;0.60;;
46613;SDS011;32338;50.430;6.806;2023-04-03T12:28:29;2.08;;;0.60;;
46613;SDS011;32338;50.430;6.806;2023-04-03T12:31:02;1.38;;;0.60;;
46613;SDS011;32338;50.430;6.806;2023-04-03T12:33:34;1.38;;;0.60;;
46613;SDS011;32338;50.430;6.806;2023-04-03T12:36:11;2.15;;;0.70;;
46613;SDS011;32338;50.430;6.806;2023-04-03T12:38:54;2.78;;;1.20;;
46613;SDS011;32338;50.430;6.806;2023-04-03T12:41:43;1.73;;;0.80;;
46613;SDS011;32338;50.430;6.806;2023-04-03T12:44:25;3.05;;;0.70;;
46613;SDS011;32338;50.430;6.806;2023-04-03T12:47:06;6.45;;;0.80;;
46613;SDS011;32338;50.430;6.806;2023-04-03T12:49:46;2.08;;;0.60;;
46613;SDS011;32338;50.430;6.806;2023-04-03T12:52:20;2.85;;;0.70;;
46613;SDS011;32338;50.430;6.806;2023-04-03T12:54:56;4.78;;;0.75;;
46613;SDS011;32338;50.430;6.806;2023-04-03T12:57:26;0.85;;;0.47;;
46613;SDS011;32338;50.430;6.806;2023-04-03T12:59:54;3.40;;;0.60;;
46613;SDS011;32338;50.430;6.806;2023-04-03T13:02:22;2.55;;;0.70;;
46613;SDS011;32338;50.430;6.806;2023-04-03T13:04:51;1.60;;;0.60;;
46613;SDS011;32338;50.430;6.806;2023-04-03T13:07:22;1.45;;;0.65;;
46613;SDS011;32338;50.430;6.806;2023-04-03T13:09:57;1.45;;;0.70;;
46613;SDS011;32338;50.430;6.806;2023-04-03T13:12:27;2.55;;;0.70;;
46613;SDS011;32338;50.430;6.806;2023-04-03T13:14:55;3.75;;;0.80;;
46613;SDS011;32338;50.430;6.806;2023-04-03T13:17:23;0.82;;;0.52;;
46613;SDS011;32338;50.430;6.806;2023-04-03T13:19:52;2.08;;;0.60;;
46613;SDS011;32338;50.430;6.806;2023-04-03T13:22:24;2.05;;;0.70;;
46613;SDS011;32338;50.430;6.806;2023-04-03T13:24:53;2.30;;;0.50;;
46613;SDS011;32338;50.430;6.806;2023-04-03T13:27:23;2.45;;;0.57;;
46613;SDS011;32338;50.430;6.806;2023-04-03T13:29:52;1.88;;;0.70;;
46613;SDS011;32338;50.430;6.806;2023-04-03T13:32:23;2.80;;;1.00;;
46613;SDS011;32338;50.430;6.806;2023-04-03T13:34:52;2.22;;;0.93;;
46613;SDS011;32338;50.430;6.806;2023-04-03T13:37:20;2.88;;;0.50;;
46613;SDS011;32338;50.430;6.806;2023-04-03T13:39:57;4.97;;;0.85;;
46613;SDS011;32338;50.430;6.806;2023-04-03T13:42:26;0.98;;;0.40;;
46613;SDS011;32338;50.430;6.806;2023-04-03T13:47:54;1.13;;;0.47;;
46613;SDS011;32338;50.430;6.806;2023-04-03T13:50:33;2.03;;;0.80;;
46613;SDS011;32338;50.430;6.806;2023-04-03T13:53:17;1.35;;;0.60;;
46613;SDS011;32338;50.430;6.806;2023-04-03T13:55:58;1.98;;;0.52;;
46613;SDS011;32338;50.430;6.806;2023-04-03T13:58:31;1.25;;;0.50;;
46613;SDS011;32338;50.430;6.806;2023-04-03T14:01:06;1.10;;;0.50;;
46613;SDS011;32338;50.430;6.806;2023-04-03T14:03:39;1.25;;;0.63;;
46613;SDS011;32338;50.430;6.806;2023-04-03T14:06:09;1.40;;;0.68;;
46613;SDS011;32338;50.430;6.806;2023-04-03T14:08:37;2.55;;;0.50;;
46613;SDS011;32338;50.430;6.806;2023-04-03T14:11:04;1.77;;;0.60;;
46613;SDS011;32338;50.430;6.806;2023-04-03T14:13:31;2.58;;;0.77;;
46613;SDS011;32338;50.430;6.806;2023-04-03T14:15:58;2.85;;;0.90;;
46613;SDS011;32338;50.430;6.806;2023-04-03T14:18:26;4.10;;;0.73;;
46613;SDS011;32338;50.430;6.806;2023-04-03T14:20:53;2.88;;;0.70;;
46613;SDS011;32338;50.430;6.806;2023-04-03T14:23:20;3.38;;;0.80;;
46613;SDS011;32338;50.430;6.806;2023-04-03T14:25:47;2.13;;;0.60;;
46613;SDS011;32338;50.430;6.806;2023-04-03T14:28:14;1.75;;;0.60;;
46613;SDS011;32338;50.430;6.806;2023-04-03T14:30:43;3.13;;;0.90;;
46613;SDS011;32338;50.430;6.806;2023-04-03T14:33:12;1.63;;;0.80;;
46613;SDS011;32338;50.430;6.806;2023-04-03T14:35:42;6.03;;;0.77;;
46613;SDS011;32338;50.430;6.806;2023-04-03T14:38:13;1.42;;;0.60;;
46613;SDS011;32338;50.430;6.806;2023-04-03T14:40:49;1.50;;;0.70;;
46613;SDS011;32338;50.430;6.806;2023-04-03T14:43:15;4.53;;;0.60;;
46613;SDS011;32338;50.430;6.806;2023-04-03T14:45:43;4.63;;;0.75;;
46613;SDS011;32338;50.430;6.806;2023-04-03T14:48:10;5.90;;;0.80;;
46613;SDS011;32338;50.430;6.806;2023-04-03T14:50:45;3.13;;;0.80;;
46613;SDS011;32338;50.430;6.806;2023-04-03T14:53:14;6.15;;;0.90;;
46613;SDS011;32338;50.430;6.806;2023-04-03T14:55:42;2.38;;;0.65;;
46613;SDS011;32338;50.430;6.806;2023-04-03T14:58:12;3.80;;;0.80;;
46613;SDS011;32338;50.430;6.806;2023-04-03T15:00:39;1.55;;;0.80;;
46613;SDS011;32338;50.430;6.806;2023-04-03T15:03:08;1.73;;;0.73;;
46613;SDS011;32338;50.430;6.806;2023-04-03T15:05:39;2.35;;;0.73;;
46613;SDS011;32338;50.430;6.806;2023-04-03T15:08:09;3.65;;;0.63;;
46613;SDS011;32338;50.430;6.806;2023-04-03T15:10:44;1.40;;;0.70;;
46613;SDS011;32338;50.430;6.806;2023-04-03T15:13:10;2.47;;;0.70;;
46613;SDS011;32338;50.430;6.806;2023-04-03T15:15:38;3.08;;;1.23;;
46613;SDS011;32338;50.430;6.806;2023-04-03T15:18:05;1.50;;;0.70;;
46613;SDS011;32338;50.430;6.806;2023-04-03T15:20:33;1.95;;;0.68;;
46613;SDS011;32338;50.430;6.806;2023-04-03T15:23:00;1.00;;;0.70;;